createdAt,value
2018-08-23T00:00:37.300Z,10.93
2018-08-23T00:03:12.976Z,7.93
2018-08-23T00:05:44.679Z,26.90
2018-08-23T00:08:11.708Z,6.43
2018-08-23T00:10:38.693Z,7.17
2018-08-23T00:13:06.359Z,10.03
2018-08-23T00:15:33.417Z,10.37
2018-08-23T00:18:00.444Z,18.90
2018-08-23T00:20:27.440Z,9.67
2018-08-23T00:23:02.507Z,10.70
2018-08-23T00:25:31.053Z,13.53
2018-08-23T00:27:58.168Z,28.13
2018-08-23T00:30:28.089Z,35.07
2018-08-23T00:32:55.240Z,5.20
2018-08-23T00:35:22.917Z,6.40
2018-08-23T00:37:49.952Z,8.30
2018-08-23T00:40:17.432Z,7.40
2018-08-23T00:43:18.000Z,7.30
2018-08-23T00:45:45.552Z,14.73
2018-08-23T00:48:12.575Z,11.67
2018-08-23T00:50:46.468Z,6.47
2018-08-23T00:53:13.844Z,5.23
2018-08-23T00:55:40.867Z,5.20
2018-08-23T00:58:07.885Z,6.13
2018-08-23T01:00:34.933Z,5.40
2018-08-23T01:03:03.287Z,15.80
2018-08-23T01:05:34.282Z,75.10
2018-08-23T01:08:02.427Z,9.00
2018-08-23T01:10:29.484Z,5.70
2018-08-23T01:12:58.668Z,6.90
2018-08-23T01:15:25.904Z,6.00
2018-08-23T01:18:07.485Z,23.00
2018-08-23T01:20:34.541Z,20.63
2018-08-23T01:23:01.602Z,21.10
2018-08-23T01:25:32.467Z,5.50
2018-08-23T01:27:59.536Z,8.30
2018-08-23T01:30:26.561Z,7.83
2018-08-23T01:32:53.608Z,6.50
2018-08-23T01:35:20.688Z,9.00
2018-08-23T01:37:47.673Z,6.30
2018-08-23T01:40:14.700Z,7.33
2018-08-23T01:42:41.893Z,9.20
2018-08-23T01:45:09.998Z,44.97
2018-08-23T01:47:44.249Z,31.67
2018-08-23T01:50:12.023Z,26.90
2018-08-23T01:52:43.161Z,6.33
2018-08-23T01:55:10.619Z,13.20
2018-08-23T01:57:37.668Z,6.60
2018-08-23T02:00:04.743Z,10.90
2018-08-23T02:02:31.716Z,8.30
2018-08-23T02:04:58.699Z,35.80
2018-08-23T02:07:25.746Z,13.73
2018-08-23T02:09:52.811Z,10.17
2018-08-23T02:12:19.836Z,23.70
2018-08-23T02:14:46.836Z,10.93
2018-08-23T02:17:14.053Z,16.63
2018-08-23T02:19:48.460Z,31.67
2018-08-23T02:22:15.520Z,55.93
2018-08-23T02:24:47.372Z,52.60
2018-08-23T02:27:15.212Z,33.63
2018-08-23T02:29:45.623Z,20.33
2018-08-23T02:32:12.705Z,16.60
2018-08-23T02:34:41.590Z,15.33
2018-08-23T02:37:10.240Z,14.20
2018-08-23T02:39:37.232Z,20.47
2018-08-23T02:42:04.364Z,15.10
2018-08-23T02:44:31.406Z,21.40
2018-08-23T02:47:00.888Z,21.30
2018-08-23T02:49:27.888Z,21.00
2018-08-23T02:51:54.940Z,31.27
2018-08-23T02:54:21.959Z,22.47
2018-08-23T02:56:57.112Z,15.03
2018-08-23T02:59:24.216Z,15.67
2018-08-23T03:01:51.288Z,19.03
2018-08-23T03:04:19.549Z,18.77
2018-08-23T03:06:52.753Z,22.50
2018-08-23T03:09:22.028Z,21.90
2018-08-23T03:11:50.201Z,24.70
2018-08-23T03:14:17.984Z,24.30
2018-08-23T03:16:52.467Z,23.47
2018-08-23T03:19:19.454Z,31.17
2018-08-23T03:21:49.651Z,29.50
2018-08-23T03:24:18.979Z,28.00
2018-08-23T03:26:47.235Z,27.07
2018-08-23T03:29:14.219Z,28.40
2018-08-23T03:31:41.399Z,27.83
2018-08-23T03:34:08.476Z,26.90
2018-08-23T03:36:35.468Z,25.33
2018-08-23T03:39:02.545Z,35.03
2018-08-23T03:41:29.541Z,27.70
2018-08-23T03:43:56.551Z,28.83
2018-08-23T03:46:23.534Z,34.80
2018-08-23T03:48:55.157Z,31.20
2018-08-23T03:51:22.149Z,32.30
2018-08-23T03:53:55.013Z,31.30
2018-08-23T03:56:21.996Z,33.73
2018-08-23T03:58:49.065Z,31.23
2018-08-23T04:01:16.083Z,34.17
2018-08-23T04:03:43.140Z,33.83
2018-08-23T04:06:37.107Z,35.70
2018-08-23T04:09:07.275Z,37.03
2018-08-23T04:11:34.279Z,37.67
2018-08-23T04:14:07.676Z,39.60
2018-08-23T04:16:34.721Z,37.47
2018-08-23T04:19:01.693Z,40.13
2018-08-23T04:21:29.402Z,116.53
2018-08-23T04:23:56.461Z,55.43
2018-08-23T04:26:24.515Z,46.70
2018-08-23T04:28:51.582Z,38.90
2018-08-23T04:31:18.694Z,46.63
2018-08-23T04:33:46.051Z,44.33
2018-08-23T04:36:32.142Z,46.03
2018-08-23T04:39:00.132Z,44.30
2018-08-23T04:41:28.276Z,36.90
2018-08-23T04:43:58.704Z,36.97
2018-08-23T04:46:25.727Z,35.23
2018-08-23T04:48:52.695Z,38.03
2018-08-23T04:51:19.671Z,39.10
2018-08-23T04:53:46.683Z,39.20
2018-08-23T04:56:13.671Z,36.90
2018-08-23T04:58:40.743Z,40.30
2018-08-23T05:01:07.827Z,41.47
2018-08-23T05:03:34.907Z,38.13
2018-08-23T05:06:01.886Z,40.03
2018-08-23T05:08:28.894Z,41.37
2018-08-23T05:10:55.900Z,41.50
2018-08-23T05:13:22.980Z,41.50
2018-08-23T05:15:49.976Z,40.27
2018-08-23T05:18:17.387Z,41.00
2018-08-23T05:20:44.373Z,39.00
2018-08-23T05:23:11.400Z,35.70
2018-08-23T05:25:38.339Z,41.00
2018-08-23T05:28:18.942Z,38.10
2018-08-23T05:30:46.633Z,40.23
2018-08-23T05:33:17.471Z,37.40
2018-08-23T05:35:45.749Z,38.20
2018-08-23T05:38:13.195Z,41.40
2018-08-23T05:40:48.318Z,40.30
2018-08-23T05:43:15.903Z,42.00
2018-08-23T05:45:55.716Z,36.60
2018-08-23T05:48:31.648Z,35.27
2018-08-23T05:51:05.540Z,36.30
2018-08-23T05:53:32.815Z,38.30
2018-08-23T05:56:01.266Z,36.10
2018-08-23T05:58:30.253Z,37.40
2018-08-23T06:00:57.283Z,34.47
2018-08-23T06:03:24.262Z,37.70
2018-08-23T06:05:52.004Z,35.53
2018-08-23T06:08:19.517Z,35.97
2018-08-23T06:10:47.631Z,34.23
2018-08-23T06:13:15.172Z,35.77
2018-08-23T06:15:50.819Z,33.83
2018-08-23T06:18:18.497Z,35.17
2018-08-23T06:20:45.599Z,32.83
2018-08-23T06:23:13.004Z,37.03
2018-08-23T06:25:40.362Z,33.97
2018-08-23T06:28:25.944Z,32.37
2018-08-23T06:30:57.068Z,32.43
2018-08-23T06:33:37.815Z,33.50
2018-08-23T06:36:05.591Z,80.03
2018-08-23T06:38:33.675Z,35.80
2018-08-23T06:41:01.787Z,35.70
2018-08-23T06:43:29.172Z,35.83
2018-08-23T06:45:56.230Z,32.40
2018-08-23T06:48:23.283Z,44.70
2018-08-23T06:50:57.175Z,62.80
2018-08-23T06:53:33.113Z,61.23
2018-08-23T06:56:00.227Z,38.37
2018-08-23T06:58:27.189Z,47.83
2018-08-23T07:00:54.240Z,38.63
2018-08-23T07:03:21.320Z,67.80
2018-08-23T07:05:48.404Z,73.47
2018-08-23T07:08:15.387Z,39.20
2018-08-23T07:10:42.428Z,59.17
2018-08-23T07:13:09.379Z,56.40
2018-08-23T07:15:36.474Z,36.87
2018-08-23T07:18:07.960Z,38.07
2018-08-23T07:20:35.075Z,47.00
2018-08-23T07:23:02.166Z,38.73
2018-08-23T07:25:33.882Z,37.20
2018-08-23T07:28:00.856Z,45.10
2018-08-23T07:30:28.948Z,40.20
2018-08-23T07:32:56.022Z,44.53
2018-08-23T07:35:23.025Z,36.20
2018-08-23T07:37:51.287Z,45.40
2018-08-23T07:40:20.288Z,36.23
2018-08-23T07:42:48.632Z,37.00
2018-08-23T07:45:15.724Z,34.43
2018-08-23T07:47:51.072Z,35.07
2018-08-23T07:50:19.777Z,34.13
2018-08-23T07:52:50.087Z,33.30
2018-08-23T07:55:17.187Z,34.97
2018-08-23T07:57:46.191Z,36.80
2018-08-23T08:00:34.439Z,33.30
2018-08-23T08:03:01.510Z,31.20
2018-08-23T08:05:31.219Z,31.27
2018-08-23T08:07:58.208Z,32.60
2018-08-23T08:10:30.128Z,31.83
2018-08-23T08:12:57.380Z,29.37
2018-08-23T08:15:24.489Z,29.47
2018-08-23T08:17:51.542Z,34.03
2018-08-23T08:20:18.720Z,51.07
2018-08-23T08:22:46.041Z,50.73
2018-08-23T08:25:20.621Z,28.00
2018-08-23T08:27:48.851Z,41.97
2018-08-23T08:30:19.306Z,36.90
2018-08-23T08:32:46.407Z,33.03
2018-08-23T08:35:19.672Z,28.57
2018-08-23T08:37:48.143Z,32.73
2018-08-23T08:40:20.884Z,25.27
2018-08-23T08:42:48.053Z,25.87
2018-08-23T08:45:15.077Z,26.53
2018-08-23T08:47:44.712Z,28.30
2018-08-23T08:50:13.856Z,28.63
2018-08-23T08:52:40.976Z,28.60
2018-08-23T08:55:10.473Z,33.90
2018-08-23T08:57:42.350Z,31.37
2018-08-23T09:00:09.949Z,33.20
2018-08-23T09:02:37.196Z,26.27
2018-08-23T09:05:04.672Z,26.40
2018-08-23T09:07:32.754Z,28.87
2018-08-23T09:09:59.828Z,30.30
2018-08-23T09:12:29.690Z,34.73
2018-08-23T09:14:57.127Z,30.07
2018-08-23T09:17:51.882Z,26.23
2018-08-23T09:20:19.167Z,23.97
2018-08-23T09:22:48.188Z,26.07
2018-08-23T09:25:23.325Z,24.63
2018-08-23T09:27:50.907Z,19.40
2018-08-23T09:30:23.564Z,19.83
2018-08-23T09:32:50.592Z,22.70
2018-08-23T09:35:17.937Z,22.10
2018-08-23T09:37:46.100Z,21.00
2018-08-23T09:40:13.232Z,25.03
2018-08-23T09:42:40.245Z,18.63
2018-08-23T09:45:16.947Z,20.67
2018-08-23T09:47:43.999Z,21.50
2018-08-23T09:50:11.044Z,18.20
2018-08-23T09:52:42.898Z,17.43
2018-08-23T09:55:12.085Z,20.43
2018-08-23T09:57:39.180Z,17.73
2018-08-23T10:00:07.907Z,17.60
2018-08-23T10:02:40.764Z,14.47
2018-08-23T10:05:12.370Z,22.90
2018-08-23T10:07:45.050Z,19.63
2018-08-23T10:10:17.825Z,18.77
2018-08-23T10:12:50.487Z,14.50
2018-08-23T10:15:23.099Z,17.70
2018-08-23T10:17:55.743Z,18.60
2018-08-23T10:20:28.515Z,20.00
2018-08-23T10:23:01.649Z,19.30
2018-08-23T10:25:50.174Z,18.27
2018-08-23T10:28:21.698Z,29.77
2018-08-23T10:30:48.956Z,18.43
2018-08-23T10:33:17.458Z,22.30
2018-08-23T10:36:01.468Z,21.53
2018-08-23T10:38:28.644Z,20.03
2018-08-23T10:41:01.364Z,14.13
2018-08-23T10:43:40.874Z,19.60
2018-08-23T10:46:07.893Z,24.33
2018-08-23T10:48:35.080Z,21.67
2018-08-23T10:51:02.133Z,21.30
2018-08-23T10:53:29.185Z,24.13
2018-08-23T10:55:56.259Z,23.47
2018-08-23T10:58:23.296Z,23.27
2018-08-23T11:00:50.275Z,23.60
2018-08-23T11:03:17.372Z,23.97
2018-08-23T11:05:45.648Z,24.30
2018-08-23T11:08:18.264Z,23.67
2018-08-23T11:10:51.135Z,25.73
2018-08-23T11:13:23.824Z,23.73
2018-08-23T11:15:55.800Z,15.77
2018-08-23T11:18:29.788Z,23.57
2018-08-23T11:20:56.895Z,23.40
2018-08-23T11:23:25.302Z,20.80
2018-08-23T11:25:52.292Z,26.67
2018-08-23T11:28:19.752Z,24.13
2018-08-23T11:30:46.733Z,21.07
2018-08-23T11:33:14.020Z,29.90
2018-08-23T11:35:41.291Z,16.17
2018-08-23T11:38:12.027Z,25.30
2018-08-23T11:40:41.435Z,27.10
2018-08-23T11:43:14.616Z,25.17
2018-08-23T11:45:46.469Z,20.50
2018-08-23T11:48:14.860Z,20.90
2018-08-23T11:50:44.023Z,20.80
2018-08-23T11:56:01.336Z,20.00
2018-08-23T11:58:37.207Z,20.47
2018-08-23T12:01:12.325Z,13.90
2018-08-23T12:03:45.975Z,19.60
2018-08-23T12:06:23.720Z,20.20
2018-08-23T12:08:54.760Z,17.93
2018-08-23T12:11:22.831Z,19.37
2018-08-23T12:13:55.391Z,18.10
2018-08-23T12:16:30.859Z,16.80
2018-08-23T12:18:58.024Z,17.57
2018-08-23T12:21:26.937Z,19.30
2018-08-23T12:23:55.973Z,17.57
2018-08-23T12:26:26.777Z,15.83
2018-08-23T12:29:00.936Z,19.53
2018-08-23T12:31:33.098Z,22.53
2018-08-23T12:34:10.942Z,12.77
2018-08-23T12:36:47.653Z,17.40
2018-08-23T12:39:23.273Z,15.17
2018-08-23T12:41:57.213Z,13.87
2018-08-23T12:44:27.123Z,18.37
2018-08-23T12:47:01.788Z,18.50
2018-08-23T12:49:32.417Z,19.57
2018-08-23T12:52:07.911Z,15.53
2018-08-23T12:54:36.591Z,16.47
2018-08-23T12:57:13.883Z,19.07
2018-08-23T12:59:42.311Z,15.53
2018-08-23T13:02:10.635Z,14.73
2018-08-23T13:04:41.735Z,11.33
2018-08-23T13:07:13.533Z,15.47
2018-08-23T13:09:42.069Z,18.40
2018-08-23T13:12:12.514Z,17.63
2018-08-23T13:14:42.149Z,15.30
2018-08-23T13:17:14.189Z,15.30
2018-08-23T13:19:51.104Z,16.07
2018-08-23T13:22:26.100Z,15.00
2018-08-23T13:25:06.006Z,13.80
2018-08-23T13:27:36.677Z,14.93
2018-08-23T13:30:08.709Z,13.33
2018-08-23T13:32:40.114Z,15.60
2018-08-23T13:35:15.188Z,16.50
2018-08-23T13:37:42.425Z,11.83
2018-08-23T13:40:27.547Z,10.53
2018-08-23T13:43:01.313Z,11.57
2018-08-23T13:45:37.326Z,12.63
2018-08-23T13:48:08.366Z,12.63
2018-08-23T13:50:38.389Z,12.50
2018-08-23T13:53:11.281Z,10.83
2018-08-23T13:55:38.899Z,12.60
2018-08-23T13:58:06.437Z,14.33
2018-08-23T14:00:40.024Z,14.60
2018-08-23T14:03:12.147Z,12.80
2018-08-23T14:05:40.698Z,12.33
2018-08-23T14:10:40.471Z,10.90
2018-08-23T14:13:09.045Z,14.47
2018-08-23T14:15:47.454Z,16.00
2018-08-23T14:18:22.693Z,13.63
2018-08-23T14:20:52.363Z,15.50
2018-08-23T14:23:26.890Z,13.20
2018-08-23T14:26:07.139Z,15.87
2018-08-23T14:28:39.071Z,18.87
2018-08-23T14:31:09.475Z,13.40
2018-08-23T14:33:38.731Z,17.53
2018-08-23T14:36:14.632Z,17.03
2018-08-23T14:38:52.333Z,19.63
2018-08-23T14:41:22.625Z,17.43
2018-08-23T14:43:56.532Z,17.50
2018-08-23T14:46:29.433Z,21.47
2018-08-23T14:48:58.616Z,21.80
2018-08-23T14:51:27.243Z,19.30
2018-08-23T14:53:56.811Z,26.73
2018-08-23T14:56:29.898Z,22.27
2018-08-23T14:59:03.171Z,17.77
2018-08-23T15:01:32.401Z,22.97
2018-08-23T15:04:03.749Z,22.10
2018-08-23T15:06:31.959Z,16.40
2018-08-23T15:09:01.030Z,21.77
2018-08-23T15:11:31.761Z,18.60
2018-08-23T15:14:00.935Z,17.10
2018-08-23T15:16:34.876Z,19.07
2018-08-23T15:19:06.011Z,18.70
2018-08-23T15:21:36.078Z,21.43
2018-08-23T15:24:04.165Z,17.27
2018-08-23T15:26:31.292Z,14.27
2018-08-23T15:28:58.261Z,19.93
2018-08-23T15:31:25.386Z,17.63
2018-08-23T15:33:52.467Z,13.70
2018-08-23T15:36:19.580Z,15.10
2018-08-23T15:38:46.923Z,15.97
2018-08-23T15:41:13.990Z,13.93
2018-08-23T15:43:41.068Z,11.43
2018-08-23T15:46:08.061Z,11.83
2018-08-23T15:48:35.052Z,11.90
2018-08-23T15:51:02.078Z,13.20
2018-08-23T15:53:29.083Z,13.83
2018-08-23T15:55:56.194Z,15.37
2018-08-23T15:58:23.119Z,14.63
2018-08-23T16:00:50.119Z,18.00
2018-08-23T16:03:17.132Z,16.13
2018-08-23T16:05:44.108Z,17.17
2018-08-23T16:08:11.091Z,22.17
2018-08-23T16:10:38.075Z,19.37
2018-08-23T16:13:05.121Z,18.30
2018-08-23T16:15:32.430Z,20.17
2018-08-23T16:18:05.288Z,16.47
2018-08-23T16:20:37.911Z,22.47
2018-08-23T16:23:04.911Z,16.03
2018-08-23T16:25:37.609Z,19.97
2018-08-23T16:28:05.156Z,17.40
2018-08-23T16:30:32.142Z,16.43
2018-08-23T16:32:59.205Z,12.20
2018-08-23T16:35:26.188Z,13.73
2018-08-23T16:37:53.786Z,13.80
2018-08-23T16:40:26.369Z,15.20
2018-08-23T16:42:53.476Z,14.90
2018-08-23T16:45:20.596Z,19.53
2018-08-23T16:47:47.608Z,14.70
2018-08-23T16:50:14.604Z,13.90
2018-08-23T16:52:41.712Z,15.33
2018-08-23T16:55:08.925Z,15.13
2018-08-23T16:57:36.043Z,15.80
2018-08-23T17:00:03.121Z,15.50
2018-08-23T17:02:30.112Z,12.97
2018-08-23T17:04:57.188Z,16.50
2018-08-23T17:07:24.291Z,13.37
2018-08-23T17:09:51.340Z,15.97
2018-08-23T17:12:18.356Z,20.67
2018-08-23T17:14:45.408Z,20.40
2018-08-23T17:17:18.643Z,22.60
2018-08-23T17:19:45.734Z,19.80
2018-08-23T17:22:12.749Z,22.43
2018-08-23T17:24:40.083Z,20.60
2018-08-23T17:27:07.146Z,19.73
2018-08-23T17:29:34.464Z,18.90
2018-08-23T17:32:01.481Z,18.33
2018-08-23T17:34:28.504Z,16.53
2018-08-23T17:36:55.521Z,16.10
2018-08-23T17:39:22.549Z,17.33
2018-08-23T17:41:49.620Z,21.50
2018-08-23T17:44:16.869Z,50.10
2018-08-23T17:46:43.863Z,15.80
2018-08-23T17:49:11.012Z,29.60
2018-08-23T17:51:37.997Z,14.43
2018-08-23T17:54:05.119Z,22.17
2018-08-23T17:56:32.121Z,15.83
2018-08-23T17:58:59.144Z,13.87
2018-08-23T18:01:26.181Z,15.00
2018-08-23T18:03:53.344Z,18.97
2018-08-23T18:06:20.328Z,16.17
2018-08-23T18:08:47.439Z,12.70
2018-08-23T18:11:14.476Z,17.80
2018-08-23T18:13:41.463Z,13.67
2018-08-23T18:17:12.276Z,21.20
2018-08-23T18:19:39.344Z,15.80
2018-08-23T18:22:06.386Z,13.57
2018-08-23T18:24:33.580Z,12.93
2018-08-23T18:27:00.761Z,13.97
2018-08-23T18:29:27.800Z,14.73
2018-08-23T18:31:54.819Z,13.07
2018-08-23T18:34:21.864Z,13.47
2018-08-23T18:36:48.883Z,12.60
2018-08-23T18:39:16.150Z,13.50
2018-08-23T18:41:43.664Z,22.70
2018-08-23T18:44:10.672Z,57.20
2018-08-23T18:46:37.755Z,24.90
2018-08-23T18:49:05.073Z,33.50
2018-08-23T18:51:32.063Z,38.03
2018-08-23T18:53:59.959Z,16.13
2018-08-23T18:56:27.683Z,16.70
2018-08-23T18:58:55.135Z,18.50
2018-08-23T19:01:22.236Z,14.73
2018-08-23T19:03:49.391Z,19.07
2018-08-23T19:06:16.367Z,14.57
2018-08-23T19:08:43.470Z,14.63
2018-08-23T19:11:10.551Z,16.40
2018-08-23T19:13:37.654Z,14.87
2018-08-23T19:17:07.993Z,18.53
2018-08-23T19:19:34.984Z,15.80
2018-08-23T19:22:13.982Z,17.07
2018-08-23T19:27:15.092Z,14.87
2018-08-23T19:29:42.163Z,15.90
2018-08-23T19:32:09.143Z,16.20
2018-08-23T19:34:36.149Z,15.97
2018-08-23T19:37:03.285Z,18.10
2018-08-23T19:39:30.279Z,18.93
2018-08-23T19:41:57.280Z,15.73
2018-08-23T19:47:19.259Z,18.43
2018-08-23T19:49:55.889Z,24.27
2018-08-23T19:52:23.078Z,21.23
2018-08-23T19:54:50.596Z,25.00
2018-08-23T19:57:17.584Z,18.50
2018-08-23T19:59:44.791Z,16.40
2018-08-23T20:02:11.891Z,17.07
2018-08-23T20:04:39.491Z,18.67
2018-08-23T20:07:06.520Z,16.83
2018-08-23T20:09:33.529Z,19.50
2018-08-23T20:12:00.610Z,17.30
2018-08-23T20:14:27.772Z,18.30
2018-08-23T20:16:54.779Z,18.20
2018-08-23T20:19:21.863Z,18.13
2018-08-23T20:21:48.865Z,18.50
2018-08-23T20:24:15.893Z,18.40
2018-08-23T20:26:42.879Z,17.40
2018-08-23T20:29:09.901Z,20.17
2018-08-23T20:31:36.880Z,19.30
2018-08-23T20:34:03.876Z,19.30
2018-08-23T20:36:30.871Z,21.10
2018-08-23T20:38:57.997Z,19.30
2018-08-23T20:41:24.953Z,19.80
2018-08-23T20:43:51.940Z,18.60
2018-08-23T20:46:18.945Z,17.60
2018-08-23T20:48:45.940Z,21.17
2018-08-23T20:51:12.987Z,19.40
2018-08-23T20:53:40.093Z,19.97
2018-08-23T20:56:07.063Z,19.37
2018-08-23T20:58:34.113Z,20.37
2018-08-23T21:01:01.209Z,18.43
2018-08-23T21:03:28.257Z,20.57
2018-08-23T21:05:55.247Z,18.73
2018-08-23T21:08:22.228Z,17.60
2018-08-23T21:10:49.255Z,20.30
2018-08-23T21:13:16.250Z,18.40
2018-08-23T21:15:43.232Z,19.63
2018-08-23T21:18:12.060Z,20.77
2018-08-23T21:20:40.851Z,19.43
2018-08-23T21:23:07.928Z,18.97
2018-08-23T21:25:34.924Z,18.90
2018-08-23T21:28:01.937Z,18.63
2018-08-23T21:30:35.766Z,17.37
2018-08-23T21:33:02.782Z,19.03
2018-08-23T21:35:29.763Z,20.60
2018-08-23T21:37:57.123Z,21.30
2018-08-23T21:40:24.147Z,19.77
2018-08-23T21:42:51.123Z,19.30
2018-08-23T21:45:18.279Z,19.57
2018-08-23T21:47:45.281Z,20.13
2018-08-23T21:50:12.357Z,20.03
2018-08-23T21:52:39.379Z,20.83
2018-08-23T21:55:06.385Z,19.17
2018-08-23T21:57:33.471Z,18.73
2018-08-23T22:00:00.824Z,18.47
2018-08-23T22:02:27.871Z,20.27
2018-08-23T22:04:56.056Z,21.10
2018-08-23T22:07:23.103Z,18.77
2018-08-23T22:09:51.222Z,20.67
2018-08-23T22:12:20.807Z,19.30
2018-08-23T22:14:48.231Z,19.30
2018-08-23T22:17:15.543Z,19.23
2018-08-23T22:19:42.576Z,19.40
2018-08-23T22:22:10.114Z,18.97
2018-08-23T22:24:37.300Z,17.83
2018-08-23T22:27:04.787Z,16.00
2018-08-23T22:29:32.083Z,18.90
2018-08-23T22:31:59.043Z,17.67
2018-08-23T22:34:26.016Z,22.17
2018-08-23T22:36:53.042Z,19.80
2018-08-23T22:39:20.509Z,19.40
2018-08-23T22:41:47.765Z,18.57
2018-08-23T22:44:15.628Z,18.07
2018-08-23T22:46:43.164Z,16.13
2018-08-23T22:49:10.192Z,17.10
2018-08-23T22:51:37.542Z,17.43
2018-08-23T22:54:04.658Z,15.43
2018-08-23T22:56:31.762Z,16.67
2018-08-23T22:58:58.883Z,15.37
2018-08-23T23:01:25.420Z,16.10
2018-08-23T23:03:57.630Z,14.90
2018-08-23T23:06:24.759Z,14.60
2018-08-23T23:08:51.739Z,14.60
2018-08-23T23:11:18.816Z,14.40
2018-08-23T23:13:45.825Z,14.77
2018-08-23T23:16:12.855Z,14.57
2018-08-23T23:18:39.886Z,13.53
2018-08-23T23:21:06.880Z,15.87
2018-08-23T23:23:34.173Z,15.53
2018-08-23T23:26:01.172Z,16.17
2018-08-23T23:28:28.239Z,16.00
2018-08-23T23:30:55.302Z,15.83
2018-08-23T23:33:22.454Z,15.90
2018-08-23T23:35:49.542Z,15.30
2018-08-23T23:38:16.535Z,17.33
2018-08-23T23:40:43.520Z,15.23
2018-08-23T23:43:10.620Z,16.17
2018-08-23T23:45:37.709Z,16.97
2018-08-23T23:48:04.704Z,15.93
2018-08-23T23:50:32.119Z,19.70
2018-08-23T23:52:59.167Z,17.73
2018-08-23T23:55:26.143Z,17.60
2018-08-23T23:57:53.561Z,17.20
